Time;durP1;ratioP1;P1;durP2;ratioP2;P2;SDS_P1;SDS_P2;PMS_P1;PMS_P2;Temp;Humidity;BMP_temperature;BMP_pressure;BME280_temperature;BME280_humidity;BME280_pressure;Samples;Min_cycle;Max_cycle;Signal;HPM_P1;HPM_P2
2022/03/03 00:02:17;;;;;;;;;;;;;;;2.23;83.08;102190.03;4969965;28;19933;-70
2022/03/03 00:04:42;;;;;;;;;;;;;;;2.23;83.34;102194.38;4965403;28;19922;-70
2022/03/03 00:07:07;;;;;;;;;;;;;;;2.21;83.47;102194.34;4962193;28;19930;-72
2022/03/03 00:09:33;;;;;;;;;;;;;;;2.21;83.53;102194.34;4965637;28;20373;-73
2022/03/03 00:11:59;;;;;;;;;;;;;;;2.20;83.15;102189.13;4971842;28;20020;-72
2022/03/03 00:14:24;;;;;;;;;;;;;;;2.19;83.25;102185.69;4963485;28;19926;-72
2022/03/03 00:16:49;;;;;;;;;;;;;;;2.12;83.52;102189.06;4975688;28;19930;-74
2022/03/03 00:19:15;;;;;;;;;;;;;;;2.11;83.64;102188.19;4987414;28;19926;-74
2022/03/03 00:21:40;;;;;;;;;;;;;;;2.08;83.48;102192.50;4989088;28;19961;-73
2022/03/03 00:24:06;;;;;;;;;;;;;;;2.06;83.34;102194.19;4985961;28;19984;-72
2022/03/03 00:26:31;;;;;;;;;;;;;;;2.06;83.45;102186.41;4984298;28;19925;-73
2022/03/03 00:28:57;;;;;;;;;;;;;;;2.10;83.03;102185.56;4987921;28;19930;-72
2022/03/03 00:31:23;;;;;;;;;;;;;;;2.03;83.40;102183.78;4979391;28;21307;-73
2022/03/03 00:33:49;;;;;;;;;;;;;;;2.04;83.43;102180.34;4988219;28;19936;-74
2022/03/03 00:36:14;;;;;;;;;;;;;;;2.05;83.39;102180.34;4985235;28;19930;-73
2022/03/03 00:38:40;;;;;;;;;;;;;;;2.02;83.30;102177.75;4982861;28;19922;-73
2022/03/03 00:41:05;;;;;;;;;;;;;;;1.98;83.26;102174.25;4984380;28;20380;-74
2022/03/03 00:43:31;;;;;;;;;;;;;;;1.93;83.20;102175.06;4988660;28;19925;-72
2022/03/03 00:45:56;;;;;;;;;;;;;;;1.95;83.16;102179.41;4984016;28;20012;-73
2022/03/03 00:48:21;;;;;;;;;;;;;;;1.96;83.18;102178.53;4986400;28;19930;-70
2022/03/03 00:50:47;;;;;;;;;;;;;;;1.94;83.00;102180.25;4988635;28;19957;-71
2022/03/03 00:53:13;;;;;;;;;;;;;;;1.83;82.54;102164.56;4985885;28;19925;-71
2022/03/03 00:55:38;;;;;;;;;;;;;;;1.85;83.27;102168.06;4988511;28;19983;-72
2022/03/03 00:58:04;;;;;;;;;;;;;;;1.90;83.47;102164.66;4987331;28;19922;-71
2022/03/03 01:00:29;;;;;;;;;;;;;;;1.88;82.99;102156.84;5015151;28;19925;-72
2022/03/03 01:02:55;;;;;;;;;;;;;;;1.87;82.84;102154.25;4982238;28;20016;-72
2022/03/03 01:05:20;;;;;;;;;;;;;;;1.79;83.59;102152.44;4984121;28;20040;-71
2022/03/03 01:07:46;;;;;;;;;;;;;;;1.74;83.46;102155.84;4983297;28;19926;-72
2022/03/03 01:10:11;;;;;;;;;;;;;;;1.75;83.66;102149.81;4987845;28;19945;-73
2022/03/03 01:12:37;;;;;;;;;;;;;;;1.76;82.97;102146.38;4989959;28;20019;-72
2022/03/03 01:15:04;;;;;;;;;;;;;;;1.81;83.38;102142.97;4986373;28;19926;-72
2022/03/03 01:17:29;;;;;;;;;;;;;;;1.79;82.77;102142.09;4989746;28;19934;-73
2022/03/03 01:19:54;;;;;;;;;;;;;;;1.75;82.59;102139.44;4987614;28;20392;-71
2022/03/03 01:22:20;;;;;;;;;;;;;;;1.72;83.26;102140.25;4986026;28;20329;-72
2022/03/03 01:24:45;;;;;;;;;;;;;;;1.71;83.10;102141.09;4988469;28;19929;-72
2022/03/03 01:27:11;;;;;;;;;;;;;;;1.67;83.75;102140.22;4985625;28;19922;-69
2022/03/03 01:29:36;;;;;;;;;;;;;;;1.68;83.70;102134.19;4989571;28;19949;-73
2022/03/03 01:32:02;;;;;;;;;;;;;;;1.68;83.41;102134.19;4985768;28;19925;-74
2022/03/03 01:34:27;;;;;;;;;;;;;;;1.74;83.46;102129.94;4987308;28;20061;-70
2022/03/03 01:36:52;;;;;;;;;;;;;;;1.64;82.90;102124.66;4987377;28;19930;-72
2022/03/03 01:39:18;;;;;;;;;;;;;;;1.66;83.27;102128.09;4985788;28;19926;-73
2022/03/03 01:41:43;;;;;;;;;;;;;;;1.67;83.34;102111.72;4981596;28;20016;-72
2022/03/03 01:44:09;;;;;;;;;;;;;;;1.64;83.24;102111.69;4984287;28;19934;-73
2022/03/03 01:46:34;;;;;;;;;;;;;;;1.67;82.93;102105.69;4989248;28;19976;-73
2022/03/03 01:49:00;;;;;;;;;;;;;;;1.61;83.40;102103.88;4987098;28;19922;-74
2022/03/03 01:51:25;;;;;;;;;;;;;;;1.61;83.38;102103.88;4985358;28;20396;-73
2022/03/03 01:53:51;;;;;;;;;;;;;;;1.61;83.46;102103.00;4986004;28;20068;-72
2022/03/03 01:56:17;;;;;;;;;;;;;;;1.54;83.51;102102.09;4984352;28;20459;-70
2022/03/03 01:58:42;;;;;;;;;;;;;;;1.56;83.50;102094.31;4988482;28;20024;-68
2022/03/03 02:01:08;;;;;;;;;;;;;;;1.62;83.31;102097.84;4984265;28;20021;-73
2022/03/03 02:03:33;;;;;;;;;;;;;;;1.52;83.76;102091.69;4987443;28;19964;-73
2022/03/03 02:05:59;;;;;;;;;;;;;;;1.53;83.12;102095.16;4986378;28;19972;-75
2022/03/03 02:08:24;;;;;;;;;;;;;;;1.53;83.51;102097.75;5001752;28;19968;-72
2022/03/03 02:11:04;;;;;;;;;;;;;;;1.47;82.97;102095.97;4986503;28;19929;-73
2022/03/03 02:13:30;;;;;;;;;;;;;;;1.47;82.88;102087.31;4984275;28;19936;-72
2022/03/03 02:15:55;;;;;;;;;;;;;;;1.49;82.91;102089.06;4984188;28;19922;-72
2022/03/03 02:18:21;;;;;;;;;;;;;;;1.49;82.43;102085.63;4982208;28;19969;-69
2022/03/03 02:20:47;;;;;;;;;;;;;;;1.49;82.99;102083.88;4983793;28;20017;-71
2022/03/03 02:23:13;;;;;;;;;;;;;;;1.50;82.94;102083.03;4981825;28;20008;-71
2022/03/03 02:25:38;;;;;;;;;;;;;;;1.53;82.70;102082.22;4983619;28;20507;-71
2022/03/03 02:28:04;;;;;;;;;;;;;;;1.53;82.64;102072.72;4985998;28;20363;-72
2022/03/03 02:30:29;;;;;;;;;;;;;;;1.56;82.26;102065.84;4985025;28;20360;-72
2022/03/03 02:32:55;;;;;;;;;;;;;;;1.49;82.24;102064.91;4986431;28;20016;-74
2022/03/03 02:35:20;;;;;;;;;;;;;;;1.51;82.35;102068.38;4979852;28;19969;-73
2022/03/03 02:37:46;;;;;;;;;;;;;;;1.45;82.30;102065.72;4985209;28;19929;-73
2022/03/03 02:40:13;;;;;;;;;;;;;;;1.39;82.51;102064.81;5013736;28;20363;-74
2022/03/03 02:42:38;;;;;;;;;;;;;;;1.43;82.15;102057.94;4988384;28;19926;-74
2022/03/03 02:45:05;;;;;;;;;;;;;;;1.43;82.47;102057.06;4986480;28;19969;-73
2022/03/03 02:47:31;;;;;;;;;;;;;;;1.42;82.60;102063.97;4985222;28;19930;-74
2022/03/03 02:49:56;;;;;;;;;;;;;;;1.46;81.97;102045.03;4988022;28;20297;-73
2022/03/03 02:52:21;;;;;;;;;;;;;;;1.44;82.01;102053.59;4985455;28;19929;-73
2022/03/03 02:54:47;;;;;;;;;;;;;;;1.38;82.21;102046.63;4987115;28;19929;-75
2022/03/03 02:59:53;;;;;;;;;;;;;;;1.44;81.33;102046.72;4987451;28;20799;-74
2022/03/03 03:02:18;;;;;;;;;;;;;;;1.37;81.93;102040.59;4985059;28;19929;-76
2022/03/03 03:04:44;;;;;;;;;;;;;;;1.34;81.46;102035.38;4986514;28;20018;-72
2022/03/03 03:07:09;;;;;;;;;;;;;;;1.35;81.74;102029.34;4983907;28;19975;-74
2022/03/03 03:09:34;;;;;;;;;;;;;;;1.37;81.52;102027.66;4985527;28;20288;-71
2022/03/03 03:12:00;;;;;;;;;;;;;;;1.40;80.84;102029.41;4986863;28;20081;-73
2022/03/03 03:14:25;;;;;;;;;;;;;;;1.41;80.52;102025.97;4984070;28;19968;-73
2022/03/03 03:16:51;;;;;;;;;;;;;;;1.41;79.96;102018.19;4985252;28;19953;-72
2022/03/03 03:19:16;;;;;;;;;;;;;;;1.32;80.99;102023.28;4984308;28;19921;-71
2022/03/03 03:21:41;;;;;;;;;;;;;;;1.30;80.69;102022.38;4987777;28;19934;-70
2022/03/03 03:24:07;;;;;;;;;;;;;;;1.34;80.78;102019.00;4999760;28;20024;-71
2022/03/03 03:26:32;;;;;;;;;;;;;;;1.28;80.65;102022.38;4984315;28;19925;-70
2022/03/03 03:28:58;;;;;;;;;;;;;;;1.18;81.07;102028.31;4986841;28;20032;-70
2022/03/03 03:31:23;;;;;;;;;;;;;;;1.20;81.42;102022.28;4983387;28;19930;-70
2022/03/03 03:33:48;;;;;;;;;;;;;;;1.17;80.67;102016.22;4986676;28;19926;-73
2022/03/03 03:36:14;;;;;;;;;;;;;;;1.13;81.37;102019.63;4983941;28;20279;-72
2022/03/03 03:38:40;;;;;;;;;;;;;;;1.17;81.29;102023.97;4985618;28;19933;-73
2022/03/03 03:41:05;;;;;;;;;;;;;;;1.17;81.29;102011.03;4984545;28;20025;-71
2022/03/03 03:43:31;;;;;;;;;;;;;;;1.22;80.81;102014.53;4984312;28;21777;-70
2022/03/03 03:45:56;;;;;;;;;;;;;;;1.14;81.47;102004.13;4983816;28;19922;-69
2022/03/03 03:48:22;;;;;;;;;;;;;;;1.15;81.22;101997.22;4983554;28;19976;-70
2022/03/03 03:50:47;;;;;;;;;;;;;;;1.10;81.66;101999.75;4988554;28;19922;-70
2022/03/03 03:53:13;;;;;;;;;;;;;;;1.11;81.52;101998.91;4986768;28;20456;-69
2022/03/03 03:55:38;;;;;;;;;;;;;;;1.05;82.03;102002.28;4990956;28;20020;-69
2022/03/03 03:58:03;;;;;;;;;;;;;;;1.03;82.40;102001.41;4988649;28;19928;-70
2022/03/03 04:00:29;;;;;;;;;;;;;;;0.96;82.31;101997.00;4987785;28;20009;-71
2022/03/03 04:02:54;;;;;;;;;;;;;;;0.99;82.44;102001.34;4990030;28;20397;-72
2022/03/03 04:05:20;;;;;;;;;;;;;;;0.97;83.02;102005.63;4987486;28;19929;-74
2022/03/03 04:07:45;;;;;;;;;;;;;;;0.91;82.66;102006.41;4988649;28;19968;-72
2022/03/03 04:10:11;;;;;;;;;;;;;;;0.86;83.25;102006.38;4988903;28;19930;-71
2022/03/03 04:12:37;;;;;;;;;;;;;;;0.88;83.04;102006.41;4988229;28;20000;-71
2022/03/03 04:15:03;;;;;;;;;;;;;;;0.84;83.42;102009.78;4988547;28;19929;-69
2022/03/03 04:17:28;;;;;;;;;;;;;;;0.80;83.34;102008.00;4987303;28;20365;-71
2022/03/03 04:19:54;;;;;;;;;;;;;;;0.75;84.04;102006.25;4989990;28;20526;-78
2022/03/03 04:22:20;;;;;;;;;;;;;;;0.72;84.13;102013.06;4989980;28;22245;-78
2022/03/03 04:24:45;;;;;;;;;;;;;;;0.71;84.32;102012.22;4998894;28;19922;-78
2022/03/03 04:27:11;;;;;;;;;;;;;;;0.71;83.62;102007.03;4979326;28;19918;-77
2022/03/03 04:29:36;;;;;;;;;;;;;;;0.71;84.11;102009.63;4998897;28;19925;-77
2022/03/03 04:32:02;;;;;;;;;;;;;;;0.65;83.55;102011.25;4987974;28;20372;-81
2022/03/03 04:34:28;;;;;;;;;;;;;;;0.58;84.13;102007.72;4991508;28;20640;-82
2022/03/03 04:36:54;;;;;;;;;;;;;;;0.58;84.26;102010.31;4992055;28;20000;-77
2022/03/03 04:39:19;;;;;;;;;;;;;;;0.56;84.31;102010.28;4985542;28;20292;-79
2022/03/03 04:41:44;;;;;;;;;;;;;;;0.54;83.96;101995.63;5007070;28;20400;-78
2022/03/03 04:44:10;;;;;;;;;;;;;;;0.57;84.10;101998.22;4998330;28;19929;-75
2022/03/03 04:46:35;;;;;;;;;;;;;;;0.54;84.13;101993.03;4990828;28;19922;-77
2022/03/03 04:49:01;;;;;;;;;;;;;;;0.49;83.44;101990.38;5005838;28;19929;-78
2022/03/03 04:51:27;;;;;;;;;;;;;;;0.44;84.38;101990.28;4994202;28;20139;-76
2022/03/03 04:53:52;;;;;;;;;;;;;;;0.46;84.49;101990.34;5010225;28;20032;-77
2022/03/03 04:56:18;;;;;;;;;;;;;;;0.49;84.36;101992.97;5009513;28;19917;-77
2022/03/03 04:58:44;;;;;;;;;;;;;;;0.49;84.39;101987.81;5003390;28;19964;-75
2022/03/03 05:01:10;;;;;;;;;;;;;;;0.53;84.16;101986.97;4975999;28;19930;-75
2022/03/03 05:03:35;;;;;;;;;;;;;;;0.46;83.94;101988.59;4982586;28;20309;-75
2022/03/03 05:06:01;;;;;;;;;;;;;;;0.46;84.37;101992.91;4982046;28;19937;-76
2022/03/03 05:08:26;;;;;;;;;;;;;;;0.39;83.86;101999.72;4983737;28;20300;-75
2022/03/03 05:10:51;;;;;;;;;;;;;;;0.36;85.11;102003.97;5001248;28;19928;-75
2022/03/03 05:13:17;;;;;;;;;;;;;;;0.35;84.69;101995.34;4989797;28;19918;-75
2022/03/03 05:15:42;;;;;;;;;;;;;;;0.35;85.71;102003.09;4989784;28;19922;-79
2022/03/03 05:18:07;;;;;;;;;;;;;;;0.33;86.37;101997.06;4989539;28;20087;-77
2022/03/03 05:20:33;;;;;;;;;;;;;;;0.35;86.74;101995.34;4989907;28;19918;-77
2022/03/03 05:22:58;;;;;;;;;;;;;;;0.35;86.62;101990.16;4990658;28;19933;-75
2022/03/03 05:25:23;;;;;;;;;;;;;;;0.35;87.05;101994.47;4978272;28;19922;-75
2022/03/03 05:27:50;;;;;;;;;;;;;;;0.30;86.27;101991.84;4970411;28;19945;-75
2022/03/03 05:30:16;;;;;;;;;;;;;;;0.21;86.54;101989.13;4985169;28;20420;-75
2022/03/03 05:32:41;;;;;;;;;;;;;;;0.24;86.39;101989.16;4984247;28;19921;-77
2022/03/03 05:35:07;;;;;;;;;;;;;;;0.22;86.01;101990.88;5001355;28;19918;-76
2022/03/03 05:37:33;;;;;;;;;;;;;;;0.23;86.18;101977.94;4988926;28;19922;-77
2022/03/03 05:39:58;;;;;;;;;;;;;;;0.25;86.23;101980.56;4986188;28;20482;-76
2022/03/03 05:42:24;;;;;;;;;;;;;;;0.24;85.63;101979.69;4970647;28;20012;-75
2022/03/03 05:44:50;;;;;;;;;;;;;;;0.21;85.26;101983.97;4968654;28;19926;-76
2022/03/03 05:47:16;;;;;;;;;;;;;;;0.22;85.44;101978.78;4970048;28;20538;-76
2022/03/03 05:49:57;;;;;;;;;;;;;;;0.21;84.20;101981.38;4975479;28;20339;-76
2022/03/03 05:52:22;;;;;;;;;;;;;;;0.21;84.69;101989.13;4980794;28;19996;-76
2022/03/03 05:54:47;;;;;;;;;;;;;;;0.21;83.59;101982.22;5016008;28;19922;-76
2022/03/03 05:57:18;;;;;;;;;;;;;;;0.27;83.41;101979.75;4972791;28;19922;-76
2022/03/03 05:59:43;;;;;;;;;;;;;;;0.28;82.80;101972.84;4968854;28;19961;-76
2022/03/03 06:02:09;;;;;;;;;;;;;;;0.26;82.89;101971.94;4973801;28;20428;-76
2022/03/03 06:04:38;;;;;;;;;;;;;;;0.28;82.28;101973.69;4983577;28;19922;-76
2022/03/03 06:07:06;;;;;;;;;;;;;;;0.30;82.82;101979.75;4976079;28;19918;-75
2022/03/03 06:09:32;;;;;;;;;;;;;;;0.36;82.74;101984.16;5018975;28;20360;-75
2022/03/03 06:12:12;;;;;;;;;;;;;;;0.29;82.92;101987.50;4988642;28;19921;-74
2022/03/03 06:14:53;;;;;;;;;;;;;;;0.29;83.75;101987.50;4977544;28;20171;-76
2022/03/03 06:17:21;;;;;;;;;;;;;;;0.23;83.70;101993.47;4986838;28;19926;-77
2022/03/03 06:19:49;;;;;;;;;;;;;;;0.19;83.66;101989.06;5016913;28;20377;-77
2022/03/03 06:22:14;;;;;;;;;;;;;;;0.17;83.55;101995.94;4981240;28;19980;-78
2022/03/03 06:24:40;;;;;;;;;;;;;;;0.15;83.60;101997.66;4981150;28;20474;-76
2022/03/03 06:27:06;;;;;;;;;;;;;;;0.20;83.90;101997.72;4979145;28;19918;-75
2022/03/03 06:29:33;;;;;;;;;;;;;;;0.18;83.83;102002.00;4974750;28;19945;-77
2022/03/03 06:31:58;;;;;;;;;;;;;;;0.18;83.33;102000.25;4978206;28;19918;-75
2022/03/03 06:34:23;;;;;;;;;;;;;;;0.19;83.04;102003.72;4976575;28;20433;-75
2022/03/03 06:36:49;;;;;;;;;;;;;;;0.23;82.99;102008.06;4987637;28;19922;-76
2022/03/03 06:39:14;;;;;;;;;;;;;;;0.24;83.00;102004.66;4988019;28;19938;-77
2022/03/03 06:41:39;;;;;;;;;;;;;;;0.28;82.64;102001.28;4976549;28;19925;-75
2022/03/03 06:44:05;;;;;;;;;;;;;;;0.28;83.13;102002.13;4973551;28;19930;-78
2022/03/03 06:46:30;;;;;;;;;;;;;;;0.34;82.12;102000.50;5013752;28;20004;-75
2022/03/03 06:48:55;;;;;;;;;;;;;;;0.38;80.80;101997.97;4975401;28;20016;-78
2022/03/03 06:51:22;;;;;;;;;;;;;;;0.42;80.46;101994.59;4988191;28;19917;-78
2022/03/03 06:53:50;;;;;;;;;;;;;;;0.52;80.56;101989.56;5003945;28;20009;-76
2022/03/03 06:56:16;;;;;;;;;;;;;;;0.55;79.77;101985.28;4975711;28;20013;-75
2022/03/03 06:58:42;;;;;;;;;;;;;;;0.58;79.38;101989.63;4988765;28;19930;-76
2022/03/03 07:01:09;;;;;;;;;;;;;;;0.63;79.38;101977.63;4978876;28;20444;-74
2022/03/03 07:03:34;;;;;;;;;;;;;;;0.71;78.71;101986.34;4980488;28;20281;-76
2022/03/03 07:06:00;;;;;;;;;;;;;;;0.77;78.59;101988.16;4973974;28;19925;-78
2022/03/03 07:08:26;;;;;;;;;;;;;;;0.86;77.90;101995.16;4972260;28;19968;-74
2022/03/03 07:10:51;;;;;;;;;;;;;;;0.87;78.14;102005.53;4971573;28;19949;-76
2022/03/03 07:13:17;;;;;;;;;;;;;;;0.80;79.97;102010.59;4975073;28;20433;-75
2022/03/03 07:15:58;;;;;;;;;;;;;;;0.84;80.97;102013.22;4977867;28;19968;-77
2022/03/03 07:18:31;;;;;;;;;;;;;;;0.79;81.37;102024.38;4966843;28;19926;-77
2022/03/03 07:21:12;;;;;;;;;;;;;;;0.81;81.34;102022.69;4975089;28;19960;-77
2022/03/03 07:23:37;;;;;;;;;;;;;;;0.82;81.79;102016.66;5001231;28;19926;-77
2022/03/03 07:26:04;;;;;;;;;;;;;;;0.86;81.52;102011.53;4998712;28;19924;-77
2022/03/03 07:28:30;;;;;;;;;;;;;;;0.85;81.10;101999.44;4985472;28;19922;-79
2022/03/03 07:30:58;;;;;;;;;;;;;;;0.88;81.43;102009.84;4979456;28;19940;-74
2022/03/03 07:33:24;;;;;;;;;;;;;;;0.96;81.22;102009.94;4987659;28;20381;-77
2022/03/03 07:35:50;;;;;;;;;;;;;;;1.09;81.02;102013.53;4998741;28;19922;-75
2022/03/03 07:38:19;;;;;;;;;;;;;;;1.21;79.94;102021.44;4974366;28;20289;-74
2022/03/03 07:40:44;;;;;;;;;;;;;;;1.30;79.61;102009.44;4985598;28;19968;-76
2022/03/03 07:43:11;;;;;;;;;;;;;;;1.35;80.31;102015.56;4986198;28;19929;-77
2022/03/03 07:45:37;;;;;;;;;;;;;;;1.42;80.07;102011.31;4969670;28;20040;-77
2022/03/03 07:48:02;;;;;;;;;;;;;;;1.45;80.99;102016.50;4975926;28;20439;-75
2022/03/03 07:50:28;;;;;;;;;;;;;;;1.51;80.66;102007.06;4990470;28;19929;-78
2022/03/03 07:52:53;;;;;;;;;;;;;;;1.57;80.43;102008.84;4981931;28;20349;-78
2022/03/03 07:55:19;;;;;;;;;;;;;;;1.58;80.36;102012.34;4988121;28;19925;-79
2022/03/03 07:57:51;;;;;;;;;;;;;;;1.67;80.09;102013.28;4987465;28;19976;-78
2022/03/03 08:00:17;;;;;;;;;;;;;;;1.60;80.40;102014.06;4986940;28;19922;-76
2022/03/03 08:02:45;;;;;;;;;;;;;;;1.71;80.15;102011.56;4988185;28;19926;-76
2022/03/03 08:05:11;;;;;;;;;;;;;;;1.78;79.22;102004.72;4981434;28;19926;-76
2022/03/03 08:07:52;;;;;;;;;;;;;;;1.82;79.03;102003.91;4985777;28;19940;-75
2022/03/03 08:10:17;;;;;;;;;;;;;;;1.95;78.72;102005.75;5033160;28;19921;-78
2022/03/03 08:12:43;;;;;;;;;;;;;;;1.97;79.08;102016.13;5000800;28;19987;-78
2022/03/03 08:15:09;;;;;;;;;;;;;;;2.00;78.74;102009.22;5005120;28;19921;-75
2022/03/03 08:17:35;;;;;;;;;;;;;;;1.94;78.71;102021.25;4983876;28;19934;-74
2022/03/03 08:20:04;;;;;;;;;;;;;;;2.02;78.41;102017.03;4985866;28;19918;-74
2022/03/03 08:22:30;;;;;;;;;;;;;;;2.15;78.27;102011.06;4981605;28;19921;-76
2022/03/03 08:24:56;;;;;;;;;;;;;;;2.12;77.81;102015.34;5013607;28;19941;-76
2022/03/03 08:27:22;;;;;;;;;;;;;;;2.24;77.55;102014.59;4967544;28;19918;-77
2022/03/03 08:29:48;;;;;;;;;;;;;;;2.43;76.45;102021.63;4985250;28;19921;-75
2022/03/03 08:32:16;;;;;;;;;;;;;;;2.52;76.04;102019.94;4978000;28;20383;-75
2022/03/03 08:37:37;;;;;;;;;;;;;;;2.74;75.19;102023.53;4988218;28;20021;-76
2022/03/03 08:40:18;;;;;;;;;;;;;;;3.50;73.00;102006.47;4988287;28;20427;-76
2022/03/03 08:42:59;;;;;;;;;;;;;;;5.83;68.52;102008.34;4984725;28;20336;-75
2022/03/03 08:45:28;;;;;;;;;;;;;;;7.20;58.94;102000.75;4989352;28;19929;-77
2022/03/03 08:48:10;;;;;;;;;;;;;;;8.54;55.36;102001.22;4989809;28;19944;-77
2022/03/03 08:50:37;;;;;;;;;;;;;;;8.53;52.04;101999.47;4988936;28;19928;-75
2022/03/03 08:53:03;;;;;;;;;;;;;;;8.68;51.83;102004.44;4989581;28;19921;-76
2022/03/03 08:55:29;;;;;;;;;;;;;;;8.63;51.30;101998.41;5021727;28;19929;-78
2022/03/03 08:57:55;;;;;;;;;;;;;;;8.99;51.28;102009.03;5021655;28;19918;-77
2022/03/03 09:00:21;;;;;;;;;;;;;;;9.07;49.41;102011.50;4990201;28;19930;-75
2022/03/03 09:02:46;;;;;;;;;;;;;;;11.25;44.29;102008.47;4990378;28;19926;-76
2022/03/03 09:05:12;;;;;;;;;;;;;;;11.13;44.32;102011.50;4990314;28;20008;-76
2022/03/03 09:07:38;;;;;;;;;;;;;;;10.79;44.19;102007.25;5021999;28;20285;-77
2022/03/03 09:10:04;;;;;;;;;;;;;;;11.37;43.72;102016.91;4987588;28;19929;-80
2022/03/03 09:12:29;;;;;;;;;;;;;;;10.17;45.13;102014.13;4994013;28;19918;-81
2022/03/03 09:14:54;;;;;;;;;;;;;;;10.03;45.66;102011.88;4992055;28;19925;-80
2022/03/03 09:17:20;;;;;;;;;;;;;;;11.45;42.96;102012.28;4989760;28;20347;-78
2022/03/03 09:19:45;;;;;;;;;;;;;;;11.49;42.81;102003.34;4990950;28;20274;-80
2022/03/03 09:22:10;;;;;;;;;;;;;;;12.35;41.41;102010.19;4991457;28;19988;-81
2022/03/03 09:24:35;;;;;;;;;;;;;;;12.11;39.73;102005.75;4991829;28;19918;-79
2022/03/03 09:27:04;;;;;;;;;;;;;;;11.77;41.10;102005.09;4990739;28;19933;-80
2022/03/03 09:29:33;;;;;;;;;;;;;;;13.25;38.37;102008.63;4992516;28;19932;-76
2022/03/03 09:31:58;;;;;;;;;;;;;;;12.82;38.98;102011.16;4988421;28;20014;-75
2022/03/03 09:34:24;;;;;;;;;;;;;;;12.91;39.38;102004.63;4989207;28;20001;-76
2022/03/03 09:36:49;;;;;;;;;;;;;;;12.40;38.54;102006.53;4988553;28;19917;-75
2022/03/03 09:39:15;;;;;;;;;;;;;;;13.55;36.03;102000.44;4984244;28;20009;-75
2022/03/03 09:41:40;;;;;;;;;;;;;;;13.37;36.87;102005.50;4991520;28;20024;-76
2022/03/03 09:44:05;;;;;;;;;;;;;;;13.28;36.93;102003.22;4982562;28;20492;-76
2022/03/03 09:46:31;;;;;;;;;;;;;;;12.61;37.55;101992.56;4974921;28;19923;-75
2022/03/03 09:48:56;;;;;;;;;;;;;;;13.03;36.56;101993.63;4986142;28;20088;-75
2022/03/03 09:51:21;;;;;;;;;;;;;;;12.98;36.52;101993.81;5035904;28;19917;-76
2022/03/03 09:53:49;;;;;;;;;;;;;;;12.53;37.83;102007.78;4996523;28;20286;-75
2022/03/03 09:56:15;;;;;;;;;;;;;;;13.01;35.86;101990.19;4987546;28;19925;-74
2022/03/03 09:58:40;;;;;;;;;;;;;;;12.91;34.67;101987.06;4986705;28;19925;-74
2022/03/03 10:01:06;;;;;;;;;;;;;;;12.16;36.73;101988.03;4986572;28;19924;-73
2022/03/03 10:03:33;;;;;;;;;;;;;;;13.37;35.14;101987.00;4989248;28;20385;-74
2022/03/03 10:06:00;;;;;;;;;;;;;;;14.55;32.68;101974.16;4986934;28;19928;-73
2022/03/03 10:08:26;;;;;;;;;;;;;;;14.74;32.21;101983.91;4986758;28;20088;-75
2022/03/03 10:10:53;;;;;;;;;;;;;;;14.91;32.30;101983.97;4986598;28;20024;-77
2022/03/03 10:13:18;;;;;;;;;;;;;;;15.01;31.08;101981.78;4992260;28;19925;-77
2022/03/03 10:15:44;;;;;;;;;;;;;;;13.51;31.94;101981.19;4972973;28;19918;-78
2022/03/03 10:18:11;;;;;;;;;;;;;;;12.08;34.73;101985.66;4993083;28;19930;-78
2022/03/03 10:20:52;;;;;;;;;;;;;;;11.14;35.98;101994.78;4989033;28;20127;-78
2022/03/03 10:23:19;;;;;;;;;;;;;;;11.42;36.48;101989.53;4988298;28;19972;-78
2022/03/03 10:25:46;;;;;;;;;;;;;;;12.25;35.33;101982.44;4989437;28;19926;-74
2022/03/03 10:28:27;;;;;;;;;;;;;;;13.27;33.78;101967.19;4987449;28;20388;-75
2022/03/03 10:30:53;;;;;;;;;;;;;;;12.65;32.92;101972.22;4980205;28;19918;-80
2022/03/03 10:33:20;;;;;;;;;;;;;;;13.93;32.26;101968.06;4988338;28;19918;-80
2022/03/03 10:36:01;;;;;;;;;;;;;;;14.51;30.89;101970.75;4991500;28;19918;-80
2022/03/03 10:38:26;;;;;;;;;;;;;;;12.92;31.71;101979.97;4987746;28;19918;-79
2022/03/03 10:40:52;;;;;;;;;;;;;;;12.70;32.42;101979.94;4990011;28;20064;-76
2022/03/03 10:43:17;;;;;;;;;;;;;;;12.69;33.47;101979.06;4987150;28;19921;-76
2022/03/03 10:45:58;;;;;;;;;;;;;;;13.24;32.96;101975.22;4987093;28;20353;-76
2022/03/03 10:48:25;;;;;;;;;;;;;;;13.43;32.21;101967.47;4987221;28;19918;-76
2022/03/03 10:50:51;;;;;;;;;;;;;;;12.48;33.99;101986.03;4989862;28;20397;-78
2022/03/03 10:53:32;;;;;;;;;;;;;;;12.11;34.23;101989.94;4999824;28;20384;-78
2022/03/03 10:56:15;;;;;;;;;;;;;;;11.36;36.17;101991.50;4995425;28;20289;-77
2022/03/03 10:58:57;;;;;;;;;;;;;;;11.75;36.40;101994.59;4980211;28;19991;-82
2022/03/03 11:01:38;;;;;;;;;;;;;;;12.23;36.67;101993.94;4989399;28;19918;-80
2022/03/03 11:04:03;;;;;;;;;;;;;;;11.76;38.44;101987.59;4980497;28;19957;-81
2022/03/03 11:06:30;;;;;;;;;;;;;;;11.16;39.00;101990.34;4983167;28;19992;-78
2022/03/03 11:08:56;;;;;;;;;;;;;;;10.39;40.61;101990.81;4992556;28;20109;-79
2022/03/03 11:11:23;;;;;;;;;;;;;;;9.08;43.14;101990.47;5001589;28;19928;-78
2022/03/03 11:13:49;;;;;;;;;;;;;;;8.74;44.61;101988.56;4988766;28;19922;-78
2022/03/03 11:16:16;;;;;;;;;;;;;;;9.03;47.65;101994.97;4986455;28;19922;-78
2022/03/03 11:18:41;;;;;;;;;;;;;;;9.04;48.04;101993.19;4986028;28;19926;-77
2022/03/03 11:21:08;;;;;;;;;;;;;;;8.51;47.64;101987.28;4971876;28;19969;-77
2022/03/03 11:23:48;;;;;;;;;;;;;;;8.71;48.18;101988.63;4987701;28;19934;-77
2022/03/03 11:26:30;;;;;;;;;;;;;;;8.64;51.67;101992.28;4979198;28;19937;-78
2022/03/03 11:29:10;;;;;;;;;;;;;;;8.30;52.85;101993.78;4974744;28;19949;-79
2022/03/03 11:31:37;;;;;;;;;;;;;;;8.34;51.81;101991.97;5001581;28;19993;-77
2022/03/03 11:34:17;;;;;;;;;;;;;;;8.12;52.23;101988.84;4981398;28;19922;-78
2022/03/03 11:36:43;;;;;;;;;;;;;;;7.99;53.60;101989.06;4987263;28;19918;-77
2022/03/03 11:39:10;;;;;;;;;;;;;;;8.04;55.49;101989.88;4984794;28;19918;-76
2022/03/03 11:41:51;;;;;;;;;;;;;;;8.05;55.15;101982.88;4986001;28;19918;-76
2022/03/03 11:44:17;;;;;;;;;;;;;;;7.86;55.47;101984.97;5018399;28;20325;-77
2022/03/03 11:46:58;;;;;;;;;;;;;;;7.95;55.39;101986.53;4987178;28;20016;-77
2022/03/03 11:49:24;;;;;;;;;;;;;;;7.80;54.36;101977.19;4986365;28;19976;-75
2022/03/03 11:51:50;;;;;;;;;;;;;;;7.61;54.20;101981.88;4975726;28;19925;-77
2022/03/03 11:54:23;;;;;;;;;;;;;;;7.58;55.48;101986.28;4978498;28;19922;-78
2022/03/03 11:57:03;;;;;;;;;;;;;;;7.66;55.05;101975.66;4974144;28;19935;-78
2022/03/03 11:59:44;;;;;;;;;;;;;;;7.82;54.91;101960.59;4987054;28;19926;-77
2022/03/03 12:02:09;;;;;;;;;;;;;;;7.74;55.59;101967.69;4982020;28;19926;-80
2022/03/03 12:04:37;;;;;;;;;;;;;;;7.76;55.25;101965.91;4977227;28;19918;-79
2022/03/03 12:07:03;;;;;;;;;;;;;;;7.80;55.85;101967.63;4986414;28;19918;-79
2022/03/03 12:09:30;;;;;;;;;;;;;;;7.66;56.86;101967.81;4988794;28;19926;-77
2022/03/03 12:12:11;;;;;;;;;;;;;;;7.76;56.34;101957.22;4990394;28;19917;-77
2022/03/03 12:14:39;;;;;;;;;;;;;;;7.86;56.40;101964.03;4991769;28;20438;-78
2022/03/03 12:17:20;;;;;;;;;;;;;;;7.95;56.34;101971.72;4972105;28;19925;-78
2022/03/03 12:19:45;;;;;;;;;;;;;;;8.09;55.29;101962.75;4980489;28;19952;-78
2022/03/03 12:22:23;;;;;;;;;;;;;;;8.06;54.84;101958.41;5002379;28;19925;-77
2022/03/03 12:24:48;;;;;;;;;;;;;;;8.08;53.14;101943.56;4997817;28;19945;-78
2022/03/03 12:27:15;;;;;;;;;;;;;;;7.91;52.10;101953.47;4996293;28;20709;-78
2022/03/03 12:29:41;;;;;;;;;;;;;;;7.98;52.28;101940.25;5009792;28;19929;-80
2022/03/03 12:32:21;;;;;;;;;;;;;;;7.77;51.54;101940.66;4983196;28;19926;-79
2022/03/03 12:34:47;;;;;;;;;;;;;;;7.98;52.70;101944.63;4985202;28;19969;-76
2022/03/03 12:37:12;;;;;;;;;;;;;;;7.90;51.86;101942.13;4989516;28;20603;-81
2022/03/03 12:39:46;;;;;;;;;;;;;;;7.98;52.65;101945.50;4989559;28;19921;-77
2022/03/03 12:42:12;;;;;;;;;;;;;;;8.04;51.59;101952.38;4990609;28;19922;-77
2022/03/03 12:44:37;;;;;;;;;;;;;;;8.02;52.95;101946.31;4991474;28;19925;-79
2022/03/03 12:47:04;;;;;;;;;;;;;;;8.03;52.26;101940.19;4981693;28;19918;-79
2022/03/03 12:49:29;;;;;;;;;;;;;;;8.23;52.48;101944.16;4989027;28;19957;-78
2022/03/03 12:51:54;;;;;;;;;;;;;;;8.28;51.12;101937.94;4989868;28;19952;-78